sensor_id;sensor_type;location;lat;lon;timestamp;P1;durP1;ratioP1;P2;durP2;ratioP2
60352;SDS011;46196;52.970;6.954;2023-02-28T00:00:21;5.35;;;3.28;;
60352;SDS011;46196;52.970;6.954;2023-02-28T00:02:47;6.60;;;3.50;;
60352;SDS011;46196;52.970;6.954;2023-02-28T00:05:15;7.75;;;3.78;;
60352;SDS011;46196;52.970;6.954;2023-02-28T00:07:44;7.55;;;3.60;;
60352;SDS011;46196;52.970;6.954;2023-02-28T00:10:12;5.57;;;3.63;;
60352;SDS011;46196;52.970;6.954;2023-02-28T00:12:40;7.65;;;3.33;;
60352;SDS011;46196;52.970;6.954;2023-02-28T00:15:09;5.80;;;3.50;;
60352;SDS011;46196;52.970;6.954;2023-02-28T00:20:02;8.25;;;3.28;;
60352;SDS011;46196;52.970;6.954;2023-02-28T00:22:40;12.75;;;4.15;;
60352;SDS011;46196;52.970;6.954;2023-02-28T00:25:08;6.25;;;3.50;;
60352;SDS011;46196;52.970;6.954;2023-02-28T00:27:35;6.35;;;3.90;;
60352;SDS011;46196;52.970;6.954;2023-02-28T00:30:02;7.22;;;3.72;;
60352;SDS011;46196;52.970;6.954;2023-02-28T00:32:29;6.75;;;3.85;;
60352;SDS011;46196;52.970;6.954;2023-02-28T00:34:55;7.47;;;3.63;;
60352;SDS011;46196;52.970;6.954;2023-02-28T00:37:21;7.28;;;3.92;;
60352;SDS011;46196;52.970;6.954;2023-02-28T00:39:47;8.02;;;3.70;;
60352;SDS011;46196;52.970;6.954;2023-02-28T00:42:13;5.95;;;3.58;;
60352;SDS011;46196;52.970;6.954;2023-02-28T00:44:39;7.57;;;3.47;;
60352;SDS011;46196;52.970;6.954;2023-02-28T00:47:05;6.18;;;3.55;;
60352;SDS011;46196;52.970;6.954;2023-02-28T00:49:31;7.53;;;3.60;;
60352;SDS011;46196;52.970;6.954;2023-02-28T00:51:59;5.38;;;3.60;;
60352;SDS011;46196;52.970;6.954;2023-02-28T00:54:24;4.38;;;3.17;;
60352;SDS011;46196;52.970;6.954;2023-02-28T00:56:50;6.13;;;3.63;;
60352;SDS011;46196;52.970;6.954;2023-02-28T00:59:16;7.13;;;3.33;;
60352;SDS011;46196;52.970;6.954;2023-02-28T01:01:43;7.38;;;3.42;;
60352;SDS011;46196;52.970;6.954;2023-02-28T01:04:13;5.93;;;3.63;;
60352;SDS011;46196;52.970;6.954;2023-02-28T01:06:39;4.05;;;2.80;;
60352;SDS011;46196;52.970;6.954;2023-02-28T01:09:05;5.93;;;3.50;;
60352;SDS011;46196;52.970;6.954;2023-02-28T01:11:32;6.25;;;3.67;;
60352;SDS011;46196;52.970;6.954;2023-02-28T01:13:59;5.68;;;3.33;;
60352;SDS011;46196;52.970;6.954;2023-02-28T01:16:25;7.78;;;3.45;;
60352;SDS011;46196;52.970;6.954;2023-02-28T01:18:51;6.18;;;3.60;;
60352;SDS011;46196;52.970;6.954;2023-02-28T01:21:18;6.70;;;3.20;;
60352;SDS011;46196;52.970;6.954;2023-02-28T01:23:45;6.22;;;3.50;;
60352;SDS011;46196;52.970;6.954;2023-02-28T01:26:16;6.20;;;3.53;;
60352;SDS011;46196;52.970;6.954;2023-02-28T01:28:44;7.95;;;3.47;;
60352;SDS011;46196;52.970;6.954;2023-02-28T01:31:10;4.28;;;3.10;;
60352;SDS011;46196;52.970;6.954;2023-02-28T01:33:36;5.35;;;3.80;;
60352;SDS011;46196;52.970;6.954;2023-02-28T01:36:06;4.85;;;3.20;;
60352;SDS011;46196;52.970;6.954;2023-02-28T01:38:36;5.47;;;3.58;;
60352;SDS011;46196;52.970;6.954;2023-02-28T01:41:03;5.43;;;3.30;;
60352;SDS011;46196;52.970;6.954;2023-02-28T01:46:20;8.45;;;3.90;;
60352;SDS011;46196;52.970;6.954;2023-02-28T01:48:47;5.50;;;3.40;;
60352;SDS011;46196;52.970;6.954;2023-02-28T01:51:24;6.82;;;3.53;;
60352;SDS011;46196;52.970;6.954;2023-02-28T01:54:23;6.28;;;4.00;;
60352;SDS011;46196;52.970;6.954;2023-02-28T01:57:04;5.53;;;3.60;;
60352;SDS011;46196;52.970;6.954;2023-02-28T01:59:47;4.68;;;3.58;;
60352;SDS011;46196;52.970;6.954;2023-02-28T02:02:17;6.40;;;3.88;;
60352;SDS011;46196;52.970;6.954;2023-02-28T02:04:46;4.70;;;3.40;;
60352;SDS011;46196;52.970;6.954;2023-02-28T02:07:20;7.40;;;4.00;;
60352;SDS011;46196;52.970;6.954;2023-02-28T02:09:46;6.20;;;3.85;;
60352;SDS011;46196;52.970;6.954;2023-02-28T02:12:21;5.10;;;3.75;;
60352;SDS011;46196;52.970;6.954;2023-02-28T02:15:12;4.97;;;3.60;;
60352;SDS011;46196;52.970;6.954;2023-02-28T02:17:57;5.75;;;3.58;;
60352;SDS011;46196;52.970;6.954;2023-02-28T02:20:32;6.80;;;3.78;;
60352;SDS011;46196;52.970;6.954;2023-02-28T02:23:27;8.05;;;3.65;;
60352;SDS011;46196;52.970;6.954;2023-02-28T02:39:45;7.43;;;3.55;;
60352;SDS011;46196;52.970;6.954;2023-02-28T02:42:23;6.43;;;3.65;;
60352;SDS011;46196;52.970;6.954;2023-02-28T02:44:59;5.97;;;3.72;;
60352;SDS011;46196;52.970;6.954;2023-02-28T02:47:34;6.00;;;3.67;;
60352;SDS011;46196;52.970;6.954;2023-02-28T02:50:03;5.88;;;3.90;;
60352;SDS011;46196;52.970;6.954;2023-02-28T02:52:34;6.85;;;4.20;;
60352;SDS011;46196;52.970;6.954;2023-02-28T02:55:05;8.98;;;4.55;;
60352;SDS011;46196;52.970;6.954;2023-02-28T02:57:37;7.28;;;4.70;;
60352;SDS011;46196;52.970;6.954;2023-02-28T03:00:13;9.60;;;4.68;;
60352;SDS011;46196;52.970;6.954;2023-02-28T03:02:41;8.15;;;4.88;;
60352;SDS011;46196;52.970;6.954;2023-02-28T03:05:14;6.88;;;5.15;;
60352;SDS011;46196;52.970;6.954;2023-02-28T03:07:53;8.57;;;4.85;;
60352;SDS011;46196;52.970;6.954;2023-02-28T03:13:42;8.13;;;4.90;;
60352;SDS011;46196;52.970;6.954;2023-02-28T03:16:20;8.98;;;5.15;;
60352;SDS011;46196;52.970;6.954;2023-02-28T03:21:55;7.78;;;5.25;;
60352;SDS011;46196;52.970;6.954;2023-02-28T03:27:29;7.82;;;5.25;;
60352;SDS011;46196;52.970;6.954;2023-02-28T03:30:17;9.65;;;5.57;;
60352;SDS011;46196;52.970;6.954;2023-02-28T03:33:03;9.05;;;5.03;;
60352;SDS011;46196;52.970;6.954;2023-02-28T03:35:37;7.95;;;5.00;;
60352;SDS011;46196;52.970;6.954;2023-02-28T03:38:10;8.18;;;5.07;;
60352;SDS011;46196;52.970;6.954;2023-02-28T03:40:39;7.53;;;4.88;;
60352;SDS011;46196;52.970;6.954;2023-02-28T03:43:12;8.38;;;5.00;;
60352;SDS011;46196;52.970;6.954;2023-02-28T03:45:43;9.20;;;4.93;;
60352;SDS011;46196;52.970;6.954;2023-02-28T03:50:42;9.23;;;5.15;;
60352;SDS011;46196;52.970;6.954;2023-02-28T03:53:29;9.30;;;4.80;;
60352;SDS011;46196;52.970;6.954;2023-02-28T03:56:06;8.82;;;5.05;;
60352;SDS011;46196;52.970;6.954;2023-02-28T04:01:39;7.93;;;5.10;;
60352;SDS011;46196;52.970;6.954;2023-02-28T04:04:10;6.47;;;4.80;;
60352;SDS011;46196;52.970;6.954;2023-02-28T04:06:37;9.20;;;5.13;;
60352;SDS011;46196;52.970;6.954;2023-02-28T04:09:04;8.25;;;5.13;;
60352;SDS011;46196;52.970;6.954;2023-02-28T04:14:04;10.25;;;5.22;;
60352;SDS011;46196;52.970;6.954;2023-02-28T04:16:30;9.80;;;4.82;;
60352;SDS011;46196;52.970;6.954;2023-02-28T04:18:57;6.78;;;4.47;;
60352;SDS011;46196;52.970;6.954;2023-02-28T04:21:27;7.88;;;4.90;;
60352;SDS011;46196;52.970;6.954;2023-02-28T04:23:54;8.00;;;5.13;;
60352;SDS011;46196;52.970;6.954;2023-02-28T04:26:20;6.60;;;4.70;;
60352;SDS011;46196;52.970;6.954;2023-02-28T04:28:46;8.15;;;5.28;;
60352;SDS011;46196;52.970;6.954;2023-02-28T04:31:11;7.55;;;5.30;;
60352;SDS011;46196;52.970;6.954;2023-02-28T04:33:37;7.40;;;4.60;;
60352;SDS011;46196;52.970;6.954;2023-02-28T04:36:07;7.80;;;4.68;;
60352;SDS011;46196;52.970;6.954;2023-02-28T04:38:34;8.23;;;4.85;;
60352;SDS011;46196;52.970;6.954;2023-02-28T04:41:01;7.65;;;4.80;;
60352;SDS011;46196;52.970;6.954;2023-02-28T04:43:28;8.30;;;4.90;;
60352;SDS011;46196;52.970;6.954;2023-02-28T04:45:57;8.30;;;4.90;;
60352;SDS011;46196;52.970;6.954;2023-02-28T04:48:27;8.60;;;4.88;;
60352;SDS011;46196;52.970;6.954;2023-02-28T04:50:54;9.23;;;5.80;;
60352;SDS011;46196;52.970;6.954;2023-02-28T04:53:20;9.38;;;5.43;;
60352;SDS011;46196;52.970;6.954;2023-02-28T04:55:46;9.10;;;5.63;;
60352;SDS011;46196;52.970;6.954;2023-02-28T04:58:12;8.32;;;5.40;;
60352;SDS011;46196;52.970;6.954;2023-02-28T05:00:38;11.20;;;5.90;;
60352;SDS011;46196;52.970;6.954;2023-02-28T05:03:04;12.30;;;5.38;;
60352;SDS011;46196;52.970;6.954;2023-02-28T05:05:30;8.38;;;5.10;;
60352;SDS011;46196;52.970;6.954;2023-02-28T05:07:56;9.98;;;5.18;;
60352;SDS011;46196;52.970;6.954;2023-02-28T05:10:22;9.60;;;5.13;;
60352;SDS011;46196;52.970;6.954;2023-02-28T05:12:48;11.00;;;5.78;;
60352;SDS011;46196;52.970;6.954;2023-02-28T05:15:15;7.07;;;4.88;;
60352;SDS011;46196;52.970;6.954;2023-02-28T05:17:41;10.20;;;5.78;;
60352;SDS011;46196;52.970;6.954;2023-02-28T05:20:08;7.95;;;5.30;;
60352;SDS011;46196;52.970;6.954;2023-02-28T05:22:41;8.93;;;5.47;;
60352;SDS011;46196;52.970;6.954;2023-02-28T05:25:08;7.90;;;5.55;;
60352;SDS011;46196;52.970;6.954;2023-02-28T05:27:37;8.73;;;5.43;;
60352;SDS011;46196;52.970;6.954;2023-02-28T05:30:03;11.43;;;6.50;;
60352;SDS011;46196;52.970;6.954;2023-02-28T05:32:31;8.27;;;5.68;;
60352;SDS011;46196;52.970;6.954;2023-02-28T05:34:57;11.63;;;6.07;;
60352;SDS011;46196;52.970;6.954;2023-02-28T05:37:22;9.35;;;5.25;;
60352;SDS011;46196;52.970;6.954;2023-02-28T05:39:48;11.73;;;6.10;;
60352;SDS011;46196;52.970;6.954;2023-02-28T05:42:14;8.88;;;5.70;;
60352;SDS011;46196;52.970;6.954;2023-02-28T05:44:39;9.35;;;5.70;;
60352;SDS011;46196;52.970;6.954;2023-02-28T05:47:05;9.27;;;6.25;;
60352;SDS011;46196;52.970;6.954;2023-02-28T05:49:31;8.80;;;5.97;;
60352;SDS011;46196;52.970;6.954;2023-02-28T05:51:57;9.15;;;6.10;;
60352;SDS011;46196;52.970;6.954;2023-02-28T05:54:22;11.32;;;6.30;;
60352;SDS011;46196;52.970;6.954;2023-02-28T05:56:48;11.88;;;6.28;;
60352;SDS011;46196;52.970;6.954;2023-02-28T05:59:14;10.38;;;6.63;;
60352;SDS011;46196;52.970;6.954;2023-02-28T06:01:43;9.68;;;5.75;;
60352;SDS011;46196;52.970;6.954;2023-02-28T06:04:13;9.40;;;6.22;;
60352;SDS011;46196;52.970;6.954;2023-02-28T06:06:49;9.32;;;6.03;;
60352;SDS011;46196;52.970;6.954;2023-02-28T06:09:15;9.45;;;6.53;;
60352;SDS011;46196;52.970;6.954;2023-02-28T06:11:41;10.25;;;5.53;;
60352;SDS011;46196;52.970;6.954;2023-02-28T06:14:07;9.93;;;5.75;;
60352;SDS011;46196;52.970;6.954;2023-02-28T06:16:39;10.98;;;6.05;;
60352;SDS011;46196;52.970;6.954;2023-02-28T06:19:05;9.60;;;6.07;;
60352;SDS011;46196;52.970;6.954;2023-02-28T06:21:30;8.52;;;5.80;;
60352;SDS011;46196;52.970;6.954;2023-02-28T06:23:57;8.73;;;5.20;;
60352;SDS011;46196;52.970;6.954;2023-02-28T06:26:24;9.82;;;5.93;;
60352;SDS011;46196;52.970;6.954;2023-02-28T06:28:50;10.73;;;6.40;;
60352;SDS011;46196;52.970;6.954;2023-02-28T06:31:16;10.88;;;6.47;;
60352;SDS011;46196;52.970;6.954;2023-02-28T06:33:44;11.43;;;6.05;;
60352;SDS011;46196;52.970;6.954;2023-02-28T06:36:11;8.30;;;6.10;;
60352;SDS011;46196;52.970;6.954;2023-02-28T06:38:38;9.13;;;6.05;;
60352;SDS011;46196;52.970;6.954;2023-02-28T06:41:04;8.85;;;6.15;;
60352;SDS011;46196;52.970;6.954;2023-02-28T06:43:32;9.55;;;6.88;;
60352;SDS011;46196;52.970;6.954;2023-02-28T06:46:01;9.45;;;6.18;;
60352;SDS011;46196;52.970;6.954;2023-02-28T06:48:28;11.73;;;6.95;;
60352;SDS011;46196;52.970;6.954;2023-02-28T06:51:01;10.95;;;6.50;;
60352;SDS011;46196;52.970;6.954;2023-02-28T06:53:32;10.57;;;6.35;;
60352;SDS011;46196;52.970;6.954;2023-02-28T06:55:58;10.02;;;6.32;;
60352;SDS011;46196;52.970;6.954;2023-02-28T06:58:24;12.60;;;6.88;;
60352;SDS011;46196;52.970;6.954;2023-02-28T07:00:50;10.77;;;6.75;;
60352;SDS011;46196;52.970;6.954;2023-02-28T07:03:17;10.15;;;6.40;;
60352;SDS011;46196;52.970;6.954;2023-02-28T07:05:43;9.80;;;6.45;;
60352;SDS011;46196;52.970;6.954;2023-02-28T07:08:09;11.85;;;6.90;;
60352;SDS011;46196;52.970;6.954;2023-02-28T07:10:38;9.48;;;6.32;;
60352;SDS011;46196;52.970;6.954;2023-02-28T07:13:05;10.70;;;6.47;;
60352;SDS011;46196;52.970;6.954;2023-02-28T07:15:32;12.15;;;6.72;;
60352;SDS011;46196;52.970;6.954;2023-02-28T07:17:58;10.73;;;6.95;;
60352;SDS011;46196;52.970;6.954;2023-02-28T07:20:24;11.75;;;7.03;;
60352;SDS011;46196;52.970;6.954;2023-02-28T07:22:50;13.88;;;8.02;;
60352;SDS011;46196;52.970;6.954;2023-02-28T07:25:28;14.55;;;8.02;;
60352;SDS011;46196;52.970;6.954;2023-02-28T07:27:54;11.88;;;7.07;;
60352;SDS011;46196;52.970;6.954;2023-02-28T07:30:21;10.55;;;6.85;;
60352;SDS011;46196;52.970;6.954;2023-02-28T07:32:46;14.23;;;7.43;;
60352;SDS011;46196;52.970;6.954;2023-02-28T07:35:13;10.75;;;6.50;;
60352;SDS011;46196;52.970;6.954;2023-02-28T07:37:40;13.98;;;8.13;;
60352;SDS011;46196;52.970;6.954;2023-02-28T07:40:08;13.10;;;7.03;;
60352;SDS011;46196;52.970;6.954;2023-02-28T07:42:39;13.50;;;7.90;;
60352;SDS011;46196;52.970;6.954;2023-02-28T07:45:06;12.63;;;6.90;;
60352;SDS011;46196;52.970;6.954;2023-02-28T07:47:36;14.25;;;7.03;;
60352;SDS011;46196;52.970;6.954;2023-02-28T07:50:02;11.32;;;7.40;;
60352;SDS011;46196;52.970;6.954;2023-02-28T07:52:28;12.18;;;7.50;;
60352;SDS011;46196;52.970;6.954;2023-02-28T07:54:54;12.80;;;7.00;;
60352;SDS011;46196;52.970;6.954;2023-02-28T07:57:20;13.30;;;7.70;;
60352;SDS011;46196;52.970;6.954;2023-02-28T07:59:46;16.10;;;8.70;;
60352;SDS011;46196;52.970;6.954;2023-02-28T08:02:16;12.98;;;7.63;;
60352;SDS011;46196;52.970;6.954;2023-02-28T08:04:43;11.98;;;7.15;;
60352;SDS011;46196;52.970;6.954;2023-02-28T08:07:09;13.75;;;7.55;;
60352;SDS011;46196;52.970;6.954;2023-02-28T08:09:41;11.43;;;7.93;;
60352;SDS011;46196;52.970;6.954;2023-02-28T08:14:33;13.05;;;7.68;;
60352;SDS011;46196;52.970;6.954;2023-02-28T08:17:00;14.45;;;7.75;;
60352;SDS011;46196;52.970;6.954;2023-02-28T08:19:26;12.65;;;7.90;;
60352;SDS011;46196;52.970;6.954;2023-02-28T08:21:52;14.30;;;7.93;;
60352;SDS011;46196;52.970;6.954;2023-02-28T08:24:17;12.23;;;7.45;;
60352;SDS011;46196;52.970;6.954;2023-02-28T08:26:43;13.88;;;8.25;;
60352;SDS011;46196;52.970;6.954;2023-02-28T08:29:09;13.32;;;8.45;;
60352;SDS011;46196;52.970;6.954;2023-02-28T08:31:35;13.82;;;7.47;;
60352;SDS011;46196;52.970;6.954;2023-02-28T08:34:07;11.93;;;7.57;;
60352;SDS011;46196;52.970;6.954;2023-02-28T08:36:33;13.57;;;8.38;;
60352;SDS011;46196;52.970;6.954;2023-02-28T08:38:59;15.18;;;8.30;;
60352;SDS011;46196;52.970;6.954;2023-02-28T08:41:25;11.30;;;7.72;;
60352;SDS011;46196;52.970;6.954;2023-02-28T08:43:52;14.02;;;9.25;;
60352;SDS011;46196;52.970;6.954;2023-02-28T08:46:18;10.25;;;7.60;;
60352;SDS011;46196;52.970;6.954;2023-02-28T08:48:44;11.48;;;7.45;;
60352;SDS011;46196;52.970;6.954;2023-02-28T08:51:12;12.57;;;8.38;;
60352;SDS011;46196;52.970;6.954;2023-02-28T08:53:46;11.73;;;8.70;;
60352;SDS011;46196;52.970;6.954;2023-02-28T08:56:14;12.07;;;7.82;;
60352;SDS011;46196;52.970;6.954;2023-02-28T08:58:42;11.55;;;7.57;;
60352;SDS011;46196;52.970;6.954;2023-02-28T09:01:18;15.57;;;8.25;;
60352;SDS011;46196;52.970;6.954;2023-02-28T09:03:47;13.52;;;8.10;;
60352;SDS011;46196;52.970;6.954;2023-02-28T09:06:14;12.98;;;8.45;;
60352;SDS011;46196;52.970;6.954;2023-02-28T09:08:41;10.70;;;7.63;;
60352;SDS011;46196;52.970;6.954;2023-02-28T09:11:07;17.40;;;8.40;;
60352;SDS011;46196;52.970;6.954;2023-02-28T09:13:34;12.52;;;8.85;;
60352;SDS011;46196;52.970;6.954;2023-02-28T09:16:01;14.90;;;8.65;;
60352;SDS011;46196;52.970;6.954;2023-02-28T09:18:27;14.77;;;7.95;;
60352;SDS011;46196;52.970;6.954;2023-02-28T09:20:54;13.93;;;9.80;;
60352;SDS011;46196;52.970;6.954;2023-02-28T09:23:20;15.30;;;9.02;;
60352;SDS011;46196;52.970;6.954;2023-02-28T09:25:47;15.55;;;8.85;;
60352;SDS011;46196;52.970;6.954;2023-02-28T09:28:15;10.77;;;7.95;;
60352;SDS011;46196;52.970;6.954;2023-02-28T09:30:42;12.65;;;8.52;;
60352;SDS011;46196;52.970;6.954;2023-02-28T09:33:09;15.55;;;8.00;;
60352;SDS011;46196;52.970;6.954;2023-02-28T09:35:35;11.93;;;8.23;;
60352;SDS011;46196;52.970;6.954;2023-02-28T09:38:02;12.30;;;8.02;;
60352;SDS011;46196;52.970;6.954;2023-02-28T09:40:29;10.40;;;7.80;;
60352;SDS011;46196;52.970;6.954;2023-02-28T09:42:55;10.90;;;7.78;;
60352;SDS011;46196;52.970;6.954;2023-02-28T09:45:36;12.27;;;7.78;;
60352;SDS011;46196;52.970;6.954;2023-02-28T09:48:12;13.93;;;7.57;;
60352;SDS011;46196;52.970;6.954;2023-02-28T09:50:46;10.98;;;7.90;;
60352;SDS011;46196;52.970;6.954;2023-02-28T09:53:29;12.35;;;7.95;;
60352;SDS011;46196;52.970;6.954;2023-02-28T09:56:19;9.40;;;6.80;;
60352;SDS011;46196;52.970;6.954;2023-02-28T10:06:44;10.52;;;7.03;;
60352;SDS011;46196;52.970;6.954;2023-02-28T10:09:22;10.77;;;6.10;;
60352;SDS011;46196;52.970;6.954;2023-02-28T10:12:03;13.20;;;6.75;;
60352;SDS011;46196;52.970;6.954;2023-02-28T10:14:31;13.57;;;7.65;;
60352;SDS011;46196;52.970;6.954;2023-02-28T10:17:01;9.27;;;7.15;;
60352;SDS011;46196;52.970;6.954;2023-02-28T10:25:50;9.00;;;6.38;;
60352;SDS011;46196;52.970;6.954;2023-02-28T10:28:21;9.82;;;6.45;;
60352;SDS011;46196;52.970;6.954;2023-02-28T10:30:50;13.55;;;7.70;;
60352;SDS011;46196;52.970;6.954;2023-02-28T10:33:25;12.73;;;8.27;;
60352;SDS011;46196;52.970;6.954;2023-02-28T10:35:54;12.07;;;7.90;;
60352;SDS011;46196;52.970;6.954;2023-02-28T10:38:22;11.45;;;6.60;;
60352;SDS011;46196;52.970;6.954;2023-02-28T10:41:08;17.02;;;12.07;;
60352;SDS011;46196;52.970;6.954;2023-02-28T10:43:37;11.60;;;7.30;;
60352;SDS011;46196;52.970;6.954;2023-02-28T10:48:37;12.18;;;7.65;;
60352;SDS011;46196;52.970;6.954;2023-02-28T10:51:14;10.93;;;7.65;;
60352;SDS011;46196;52.970;6.954;2023-02-28T10:53:48;12.20;;;6.97;;
60352;SDS011;46196;52.970;6.954;2023-02-28T10:58:54;12.38;;;7.35;;
60352;SDS011;46196;52.970;6.954;2023-02-28T11:03:59;11.13;;;6.82;;
60352;SDS011;46196;52.970;6.954;2023-02-28T11:06:32;9.90;;;6.85;;
60352;SDS011;46196;52.970;6.954;2023-02-28T11:09:00;9.60;;;6.82;;
60352;SDS011;46196;52.970;6.954;2023-02-28T11:11:29;14.65;;;8.65;;
60352;SDS011;46196;52.970;6.954;2023-02-28T11:14:06;11.85;;;6.90;;
60352;SDS011;46196;52.970;6.954;2023-02-28T11:16:46;12.05;;;7.43;;
60352;SDS011;46196;52.970;6.954;2023-02-28T11:19:20;15.52;;;8.55;;
60352;SDS011;46196;52.970;6.954;2023-02-28T11:21:54;9.27;;;6.50;;
60352;SDS011;46196;52.970;6.954;2023-02-28T11:24:29;26.33;;;13.80;;
60352;SDS011;46196;52.970;6.954;2023-02-28T11:26:57;16.40;;;9.90;;
60352;SDS011;46196;52.970;6.954;2023-02-28T11:29:27;10.43;;;6.90;;
60352;SDS011;46196;52.970;6.954;2023-02-28T11:34:36;11.55;;;7.35;;
60352;SDS011;46196;52.970;6.954;2023-02-28T11:37:02;10.30;;;6.72;;
60352;SDS011;46196;52.970;6.954;2023-02-28T11:39:31;12.07;;;7.70;;
60352;SDS011;46196;52.970;6.954;2023-02-28T11:53:10;12.20;;;7.07;;
60352;SDS011;46196;52.970;6.954;2023-02-28T11:55:36;8.65;;;7.32;;
60352;SDS011;46196;52.970;6.954;2023-02-28T12:01:28;10.93;;;7.85;;
60352;SDS011;46196;52.970;6.954;2023-02-28T12:07:09;13.25;;;8.63;;
60352;SDS011;46196;52.970;6.954;2023-02-28T12:10:01;11.65;;;7.60;;
60352;SDS011;46196;52.970;6.954;2023-02-28T12:21:14;11.35;;;8.18;;
60352;SDS011;46196;52.970;6.954;2023-02-28T12:26:38;9.05;;;6.93;;
60352;SDS011;46196;52.970;6.954;2023-02-28T12:29:17;10.70;;;7.25;;
60352;SDS011;46196;52.970;6.954;2023-02-28T12:31:53;8.75;;;6.88;;
60352;SDS011;46196;52.970;6.954;2023-02-28T12:34:42;9.68;;;6.72;;
60352;SDS011;46196;52.970;6.954;2023-02-28T12:37:14;8.18;;;6.43;;
60352;SDS011;46196;52.970;6.954;2023-02-28T12:39:45;9.15;;;6.03;;
60352;SDS011;46196;52.970;6.954;2023-02-28T12:42:17;10.40;;;6.47;;
60352;SDS011;46196;52.970;6.954;2023-02-28T12:44:49;9.32;;;5.97;;
60352;SDS011;46196;52.970;6.954;2023-02-28T12:47:29;12.60;;;6.80;;
60352;SDS011;46196;52.970;6.954;2023-02-28T13:09:12;7.75;;;5.18;;
60352;SDS011;46196;52.970;6.954;2023-02-28T13:14:15;7.75;;;5.05;;
60352;SDS011;46196;52.970;6.954;2023-02-28T13:19:16;7.50;;;4.95;;
60352;SDS011;46196;52.970;6.954;2023-02-28T13:21:45;6.05;;;4.57;;
60352;SDS011;46196;52.970;6.954;2023-02-28T13:24:14;7.43;;;5.32;;
60352;SDS011;46196;52.970;6.954;2023-02-28T13:29:41;7.90;;;4.80;;
60352;SDS011;46196;52.970;6.954;2023-02-28T13:34:35;7.68;;;5.05;;
60352;SDS011;46196;52.970;6.954;2023-02-28T13:40:30;7.57;;;4.82;;
60352;SDS011;46196;52.970;6.954;2023-02-28T13:43:02;7.22;;;4.72;;
60352;SDS011;46196;52.970;6.954;2023-02-28T13:45:29;8.48;;;4.60;;
60352;SDS011;46196;52.970;6.954;2023-02-28T13:47:59;8.18;;;4.57;;
60352;SDS011;46196;52.970;6.954;2023-02-28T13:50:35;8.32;;;5.70;;
60352;SDS011;46196;52.970;6.954;2023-02-28T13:58:46;6.47;;;4.25;;
60352;SDS011;46196;52.970;6.954;2023-02-28T14:01:36;8.68;;;5.88;;
60352;SDS011;46196;52.970;6.954;2023-02-28T14:07:20;8.30;;;5.22;;
60352;SDS011;46196;52.970;6.954;2023-02-28T14:10:01;7.28;;;4.63;;
60352;SDS011;46196;52.970;6.954;2023-02-28T14:17:56;9.32;;;5.68;;
60352;SDS011;46196;52.970;6.954;2023-02-28T14:20:25;6.75;;;5.95;;
60352;SDS011;46196;52.970;6.954;2023-02-28T14:31:31;10.40;;;6.07;;
60352;SDS011;46196;52.970;6.954;2023-02-28T14:36:49;7.70;;;5.88;;
60352;SDS011;46196;52.970;6.954;2023-02-28T14:39:21;7.13;;;5.38;;
60352;SDS011;46196;52.970;6.954;2023-02-28T14:41:49;8.48;;;5.30;;
60352;SDS011;46196;52.970;6.954;2023-02-28T14:44:22;8.52;;;5.53;;
60352;SDS011;46196;52.970;6.954;2023-02-28T14:46:53;9.13;;;5.20;;
60352;SDS011;46196;52.970;6.954;2023-02-28T14:49:35;6.78;;;4.68;;
60352;SDS011;46196;52.970;6.954;2023-02-28T14:52:09;6.65;;;4.40;;
60352;SDS011;46196;52.970;6.954;2023-02-28T14:54:44;6.50;;;4.63;;
60352;SDS011;46196;52.970;6.954;2023-02-28T14:57:25;7.60;;;5.40;;
60352;SDS011;46196;52.970;6.954;2023-02-28T15:00:16;8.40;;;5.10;;
60352;SDS011;46196;52.970;6.954;2023-02-28T15:02:41;7.07;;;5.20;;
60352;SDS011;46196;52.970;6.954;2023-02-28T15:07:43;8.07;;;5.50;;
60352;SDS011;46196;52.970;6.954;2023-02-28T15:10:16;8.80;;;5.75;;
60352;SDS011;46196;52.970;6.954;2023-02-28T15:12:54;8.30;;;5.35;;
60352;SDS011;46196;52.970;6.954;2023-02-28T15:15:35;8.63;;;5.53;;
60352;SDS011;46196;52.970;6.954;2023-02-28T15:18:04;13.13;;;5.93;;
60352;SDS011;46196;52.970;6.954;2023-02-28T15:20:32;7.18;;;5.25;;
60352;SDS011;46196;52.970;6.954;2023-02-28T15:23:00;8.65;;;5.47;;
60352;SDS011;46196;52.970;6.954;2023-02-28T15:25:26;8.95;;;5.57;;
60352;SDS011;46196;52.970;6.954;2023-02-28T15:27:53;8.90;;;5.07;;
60352;SDS011;46196;52.970;6.954;2023-02-28T15:30:21;8.18;;;4.70;;
60352;SDS011;46196;52.970;6.954;2023-02-28T15:35:48;8.13;;;5.15;;
60352;SDS011;46196;52.970;6.954;2023-02-28T15:38:22;10.23;;;5.15;;
60352;SDS011;46196;52.970;6.954;2023-02-28T15:40:54;8.65;;;5.65;;
60352;SDS011;46196;52.970;6.954;2023-02-28T15:43:32;8.13;;;5.10;;
60352;SDS011;46196;52.970;6.954;2023-02-28T15:45:59;10.70;;;5.93;;
60352;SDS011;46196;52.970;6.954;2023-02-28T15:48:33;9.40;;;5.15;;
60352;SDS011;46196;52.970;6.954;2023-02-28T15:51:09;7.75;;;5.55;;
60352;SDS011;46196;52.970;6.954;2023-02-28T15:56:26;7.38;;;3.92;;
60352;SDS011;46196;52.970;6.954;2023-02-28T16:01:26;10.05;;;5.05;;
60352;SDS011;46196;52.970;6.954;2023-02-28T16:03:56;6.40;;;4.35;;
60352;SDS011;46196;52.970;6.954;2023-02-28T16:06:32;7.85;;;4.50;;
60352;SDS011;46196;52.970;6.954;2023-02-28T16:08:59;8.02;;;4.80;;
60352;SDS011;46196;52.970;6.954;2023-02-28T16:11:25;7.43;;;4.53;;
60352;SDS011;46196;52.970;6.954;2023-02-28T16:13:51;7.78;;;4.95;;
60352;SDS011;46196;52.970;6.954;2023-02-28T16:16:21;7.05;;;5.32;;
60352;SDS011;46196;52.970;6.954;2023-02-28T16:18:49;8.50;;;5.10;;
60352;SDS011;46196;52.970;6.954;2023-02-28T16:21:15;8.45;;;5.15;;
60352;SDS011;46196;52.970;6.954;2023-02-28T16:23:41;5.55;;;4.15;;
60352;SDS011;46196;52.970;6.954;2023-02-28T16:26:07;7.57;;;4.70;;
60352;SDS011;46196;52.970;6.954;2023-02-28T16:28:34;6.72;;;5.20;;
60352;SDS011;46196;52.970;6.954;2023-02-28T16:31:02;9.73;;;6.00;;
60352;SDS011;46196;52.970;6.954;2023-02-28T16:33:31;8.83;;;6.03;;
60352;SDS011;46196;52.970;6.954;2023-02-28T16:35:58;11.52;;;6.50;;
60352;SDS011;46196;52.970;6.954;2023-02-28T16:38:24;9.85;;;6.70;;
60352;SDS011;46196;52.970;6.954;2023-02-28T16:40:50;9.05;;;5.57;;
60352;SDS011;46196;52.970;6.954;2023-02-28T16:43:25;11.15;;;6.68;;
60352;SDS011;46196;52.970;6.954;2023-02-28T16:45:55;8.57;;;5.75;;
60352;SDS011;46196;52.970;6.954;2023-02-28T16:48:25;8.88;;;5.93;;
60352;SDS011;46196;52.970;6.954;2023-02-28T16:50:51;7.68;;;5.78;;
60352;SDS011;46196;52.970;6.954;2023-02-28T16:53:16;9.18;;;5.15;;
60352;SDS011;46196;52.970;6.954;2023-02-28T16:55:42;6.72;;;4.50;;
60352;SDS011;46196;52.970;6.954;2023-02-28T16:58:11;8.50;;;5.10;;
60352;SDS011;46196;52.970;6.954;2023-02-28T17:00:40;8.27;;;4.38;;
60352;SDS011;46196;52.970;6.954;2023-02-28T17:03:10;7.05;;;5.00;;
60352;SDS011;46196;52.970;6.954;2023-02-28T17:05:49;5.88;;;4.60;;
60352;SDS011;46196;52.970;6.954;2023-02-28T17:08:15;9.23;;;5.60;;
60352;SDS011;46196;52.970;6.954;2023-02-28T17:10:41;11.20;;;7.20;;
60352;SDS011;46196;52.970;6.954;2023-02-28T17:13:07;9.35;;;6.10;;
60352;SDS011;46196;52.970;6.954;2023-02-28T17:15:34;10.52;;;6.00;;
60352;SDS011;46196;52.970;6.954;2023-02-28T17:18:00;9.38;;;5.65;;
60352;SDS011;46196;52.970;6.954;2023-02-28T17:20:26;7.35;;;5.22;;
60352;SDS011;46196;52.970;6.954;2023-02-28T17:22:52;7.72;;;4.85;;
60352;SDS011;46196;52.970;6.954;2023-02-28T17:25:19;15.80;;;6.28;;
60352;SDS011;46196;52.970;6.954;2023-02-28T17:27:46;18.40;;;7.43;;
60352;SDS011;46196;52.970;6.954;2023-02-28T17:30:16;13.18;;;6.10;;
60352;SDS011;46196;52.970;6.954;2023-02-28T17:32:44;10.70;;;6.28;;
60352;SDS011;46196;52.970;6.954;2023-02-28T17:35:11;13.00;;;5.97;;
60352;SDS011;46196;52.970;6.954;2023-02-28T17:37:37;9.13;;;5.40;;
60352;SDS011;46196;52.970;6.954;2023-02-28T17:40:03;8.32;;;5.60;;